createdAt,value
2023-03-23T15:58:11.921Z,91.30
2023-03-23T16:00:40.430Z,91.50
2023-03-23T16:03:14.485Z,91.60
2023-03-23T16:05:41.724Z,91.80
2023-03-23T16:08:11.818Z,91.80
2023-03-23T16:10:39.150Z,91.90
2023-03-23T16:13:07.073Z,91.90
2023-03-23T16:15:34.157Z,91.90
2023-03-23T16:18:01.074Z,92.00
2023-03-23T16:20:30.199Z,92.10
2023-03-23T16:22:57.486Z,92.10
2023-03-23T16:25:24.370Z,92.20
2023-03-23T16:27:52.687Z,92.20
2023-03-23T16:30:24.129Z,92.20
2023-03-23T16:32:51.498Z,92.30
2023-03-23T16:35:20.159Z,92.50
2023-03-23T16:38:07.112Z,92.60
2023-03-23T16:40:34.716Z,92.70
2023-03-23T16:43:01.622Z,92.60
2023-03-23T16:45:35.706Z,92.60
2023-03-23T16:48:02.630Z,92.60
2023-03-23T16:50:30.085Z,92.20
2023-03-23T16:52:57.446Z,92.20
2023-03-23T16:55:26.127Z,92.10
2023-03-23T16:58:05.396Z,92.00
2023-03-23T17:00:40.874Z,92.00
2023-03-23T17:03:08.437Z,92.10
2023-03-23T17:05:37.127Z,92.00
2023-03-23T17:08:04.620Z,92.20
2023-03-23T17:10:32.241Z,92.00
2023-03-23T17:12:59.206Z,91.90
2023-03-23T17:15:26.149Z,92.00
2023-03-23T17:17:54.795Z,92.00
2023-03-23T17:20:22.402Z,92.00
2023-03-23T17:22:49.488Z,92.10
2023-03-23T17:25:16.493Z,92.10
2023-03-23T17:27:43.409Z,92.20
2023-03-23T17:30:11.457Z,92.30
2023-03-23T17:32:39.091Z,92.40
2023-03-23T17:35:06.977Z,92.50
2023-03-23T17:37:34.448Z,92.80
2023-03-23T17:40:01.371Z,92.70
2023-03-23T17:42:29.550Z,92.70
2023-03-23T17:44:56.468Z,92.80
2023-03-23T17:47:24.095Z,92.90
2023-03-23T17:49:51.382Z,93.10
2023-03-23T17:52:18.293Z,93.20
2023-03-23T17:54:45.494Z,93.30
2023-03-23T17:57:12.469Z,93.30
2023-03-23T17:59:39.548Z,93.40
2023-03-23T18:02:06.670Z,93.40
2023-03-23T18:04:33.598Z,93.50
2023-03-23T18:07:00.970Z,93.50
2023-03-23T18:09:28.176Z,93.50
2023-03-23T18:11:56.558Z,93.50
2023-03-23T18:14:23.563Z,93.50
2023-03-23T18:16:50.609Z,93.40
2023-03-23T18:19:17.594Z,93.30
2023-03-23T18:21:46.000Z,93.20
2023-03-23T18:24:13.221Z,93.10
2023-03-23T18:26:40.931Z,93.00
2023-03-23T18:29:07.850Z,92.90
2023-03-23T18:31:39.926Z,92.90
2023-03-23T18:34:07.530Z,92.90
2023-03-23T18:36:35.065Z,92.80
2023-03-23T18:39:03.700Z,92.80
2023-03-23T18:41:30.681Z,92.70
2023-03-23T18:43:57.881Z,92.70
2023-03-23T18:46:25.487Z,92.70
2023-03-23T18:48:52.492Z,92.80
2023-03-23T18:51:19.380Z,92.80
2023-03-23T18:53:46.379Z,92.80
2023-03-23T18:56:16.439Z,92.90
2023-03-23T18:58:44.782Z,93.10
2023-03-23T19:01:16.951Z,93.10
2023-03-23T19:03:45.313Z,93.20
2023-03-23T19:06:22.537Z,93.30
2023-03-23T19:08:50.242Z,93.40
2023-03-23T19:11:18.153Z,93.40
2023-03-23T19:13:58.450Z,93.60
2023-03-23T19:16:31.068Z,93.60
2023-03-23T19:18:58.137Z,93.70
2023-03-23T19:21:25.905Z,93.90
2023-03-23T19:23:55.240Z,94.00
2023-03-23T19:26:34.708Z,94.10
2023-03-23T19:31:35.948Z,94.20
2023-03-23T19:34:02.890Z,94.20
2023-03-23T19:36:30.316Z,94.20
2023-03-23T19:38:57.802Z,94.20
2023-03-23T19:41:30.334Z,94.30
2023-03-23T19:43:57.607Z,94.30
2023-03-23T19:46:26.027Z,94.50
2023-03-23T19:48:54.631Z,94.40
2023-03-23T19:51:22.465Z,94.40
2023-03-23T19:53:50.193Z,94.40
2023-03-23T19:56:21.511Z,94.60
2023-03-23T19:58:49.042Z,94.70
2023-03-23T20:01:16.764Z,94.60
2023-03-23T20:03:44.060Z,94.70
2023-03-23T20:06:15.119Z,94.70
2023-03-23T20:08:45.549Z,94.80
2023-03-23T20:11:17.176Z,95.00
2023-03-23T20:13:45.936Z,95.00
2023-03-23T20:16:12.970Z,95.20
2023-03-23T20:18:40.613Z,95.10
2023-03-23T20:21:14.473Z,95.30
2023-03-23T20:23:42.941Z,95.30
2023-03-23T20:26:14.752Z,95.50
2023-03-23T20:28:42.682Z,95.50
2023-03-23T20:31:19.282Z,95.30
2023-03-23T20:34:00.249Z,95.50
2023-03-23T20:36:34.783Z,95.50
2023-03-23T20:39:12.507Z,95.70
2023-03-23T20:41:40.373Z,96.10
2023-03-23T20:44:13.739Z,95.80
2023-03-23T20:46:45.778Z,95.70
2023-03-23T20:49:13.912Z,95.80
2023-03-23T20:51:40.987Z,95.70
2023-03-23T20:54:08.001Z,95.70
2023-03-23T20:56:35.614Z,95.90
2023-03-23T20:59:03.701Z,95.90
2023-03-23T21:01:33.155Z,95.90
2023-03-23T21:04:00.284Z,95.90
2023-03-23T21:06:28.768Z,95.90
2023-03-23T21:08:57.428Z,96.00
2023-03-23T21:11:26.641Z,96.00
2023-03-23T21:13:54.278Z,96.10
2023-03-23T21:16:21.535Z,96.20
2023-03-23T21:18:48.633Z,96.10
2023-03-23T21:21:18.381Z,96.10
2023-03-23T21:23:47.505Z,96.10
2023-03-23T21:26:17.001Z,96.10
2023-03-23T21:28:45.796Z,96.10
2023-03-23T21:31:14.980Z,96.00
2023-03-23T21:33:42.026Z,96.00
2023-03-23T21:36:10.096Z,96.10
2023-03-23T21:38:38.356Z,96.00
2023-03-23T21:41:14.282Z,96.00
2023-03-23T21:43:41.730Z,96.10
2023-03-23T21:46:09.840Z,96.10
2023-03-23T21:48:41.533Z,96.10
2023-03-23T21:51:13.416Z,96.50
2023-03-23T21:53:42.025Z,96.20
2023-03-23T21:56:10.728Z,96.20
2023-03-23T21:58:38.387Z,96.30
2023-03-23T22:01:05.629Z,96.50
2023-03-23T22:03:35.283Z,96.60
2023-03-23T22:06:16.310Z,96.50
2023-03-23T22:08:45.312Z,96.80
2023-03-23T22:11:17.119Z,96.60
2023-03-23T22:13:44.238Z,96.70
2023-03-23T22:16:14.892Z,96.60
2023-03-23T22:18:43.321Z,96.60
2023-03-23T22:21:11.341Z,96.60
2023-03-23T22:23:39.402Z,96.60
2023-03-23T22:26:07.540Z,96.60
2023-03-23T22:28:37.072Z,96.70
2023-03-23T22:31:14.274Z,96.80
2023-03-23T22:33:41.169Z,96.80
2023-03-23T22:36:08.846Z,96.70
2023-03-23T22:38:38.449Z,96.70
2023-03-23T22:41:08.200Z,96.80
2023-03-23T22:43:36.637Z,96.90
2023-03-23T22:46:04.861Z,96.90
2023-03-23T22:48:31.982Z,96.90
2023-03-23T22:50:59.532Z,96.90
2023-03-23T22:53:26.452Z,96.90
2023-03-23T22:55:56.642Z,96.90
2023-03-23T22:58:25.913Z,97.00
2023-03-23T23:01:02.821Z,97.00
2023-03-23T23:03:30.799Z,97.00
2023-03-23T23:05:59.462Z,96.90
2023-03-23T23:08:28.518Z,97.00
2023-03-23T23:10:57.701Z,96.90
2023-03-23T23:13:25.913Z,96.90
2023-03-23T23:15:56.966Z,96.90
2023-03-23T23:18:25.927Z,96.90
2023-03-23T23:20:56.355Z,96.80
2023-03-23T23:23:25.172Z,96.80
2023-03-23T23:25:52.170Z,96.80
2023-03-23T23:28:20.236Z,96.70
2023-03-23T23:30:47.753Z,96.60
2023-03-23T23:33:14.991Z,96.60
2023-03-23T23:35:42.491Z,96.50
2023-03-23T23:38:12.341Z,96.50
2023-03-23T23:40:41.380Z,96.50
2023-03-23T23:43:10.713Z,96.50
2023-03-23T23:45:37.960Z,96.60
2023-03-23T23:48:05.381Z,96.50
2023-03-23T23:50:32.800Z,96.50
2023-03-23T23:53:00.140Z,96.50
2023-03-23T23:55:27.925Z,96.50
2023-03-23T23:57:54.847Z,96.50
